Time;durP1;ratioP1;P1;durP2;ratioP2;P2;SDS_P1;SDS_P2;PMS_P1;PMS_P2;Temp;Humidity;BMP_temperature;BMP_pressure;BME280_temperature;BME280_humidity;BME280_pressure;Samples;Min_cycle;Max_cycle;Signal;HPM_P1;HPM_P2
2022/07/06 00:01:36;;;;;;;0.40;0.40;;;16.50;1.00;;;;;;5043442;28;20791;-77
2022/07/06 00:04:03;;;;;;;0.20;0.20;;;16.50;1.00;;;;;;5047799;28;20322;-77
2022/07/06 00:06:28;;;;;;;0.30;0.30;;;16.50;99.90;;;;;;5046062;28;20669;-77
2022/07/06 00:08:54;;;;;;;0.30;0.30;;;16.50;1.00;;;;;;5045120;28;20202;-78
2022/07/06 00:11:20;;;;;;;0.40;0.40;;;16.60;99.90;;;;;;5045606;28;20207;-78
2022/07/06 00:13:46;;;;;;;0.40;0.40;;;16.60;1.00;;;;;;5046330;28;20179;-77
2022/07/06 00:16:12;;;;;;;0.30;0.30;;;16.60;1.00;;;;;;5046841;28;20271;-77
2022/07/06 00:18:37;;;;;;;0.30;0.30;;;16.60;99.90;;;;;;5046820;28;20202;-77
2022/07/06 00:21:03;;;;;;;0.40;0.40;;;16.50;99.90;;;;;;5045279;28;20215;-78
2022/07/06 00:23:29;;;;;;;0.30;0.30;;;16.60;1.00;;;;;;5047169;28;20191;-78
2022/07/06 00:25:54;;;;;;;0.30;0.30;;;16.60;1.00;;;;;;5047067;28;20672;-77
2022/07/06 00:28:20;;;;;;;0.40;0.40;;;16.50;1.00;;;;;;5043901;28;20599;-77
2022/07/06 00:30:46;;;;;;;0.30;0.30;;;16.40;1.00;;;;;;5044262;28;20251;-78
2022/07/06 00:33:11;;;;;;;0.40;0.40;;;16.30;99.90;;;;;;5043693;28;20196;-77
2022/07/06 00:35:37;;;;;;;0.47;0.47;;;16.20;99.90;;;;;;5041794;28;20239;-76
2022/07/06 00:38:02;;;;;;;0.40;0.40;;;16.10;99.90;;;;;;5041533;28;20259;-77
2022/07/06 00:40:29;;;;;;;0.40;0.40;;;16.10;1.00;;;;;;5040591;28;20299;-78
2022/07/06 00:42:55;;;;;;;0.20;0.20;;;16.00;1.00;;;;;;5045010;28;20195;-79
2022/07/06 00:45:21;;;;;;;0.30;0.30;;;15.90;1.00;;;;;;5041504;28;20184;-77
2022/07/06 00:47:47;;;;;;;0.30;0.30;;;15.80;1.00;;;;;;5037434;28;20178;-78
2022/07/06 00:50:17;;;;;;;0.30;0.30;;;15.80;1.00;;;;;;5036898;28;20179;-79
2022/07/06 00:52:45;;;;;;;0.33;0.33;;;15.80;99.90;;;;;;5045894;28;20638;-77
2022/07/06 00:55:11;;;;;;;0.30;0.30;;;15.80;1.00;;;;;;5035191;28;20175;-77
2022/07/06 00:57:38;;;;;;;0.30;0.30;;;15.80;1.00;;;;;;5038693;28;20176;-77
2022/07/06 01:00:06;;;;;;;0.30;0.30;;;15.80;1.00;;;;;;5042741;28;20588;-77
2022/07/06 01:02:32;;;;;;;0.30;0.30;;;15.80;1.00;;;;;;5043176;28;20267;-77
2022/07/06 01:04:58;;;;;;;0.30;0.30;;;15.80;1.00;;;;;;5047411;28;20176;-77
2022/07/06 01:07:24;;;;;;;0.30;0.30;;;15.80;99.90;;;;;;5049222;28;20247;-77
2022/07/06 01:09:50;;;;;;;0.40;0.40;;;15.80;99.90;;;;;;5049482;28;20183;-77
2022/07/06 01:12:16;;;;;;;0.30;0.30;;;15.70;1.00;;;;;;5051746;28;20222;-78
2022/07/06 01:14:42;;;;;;;0.30;0.30;;;15.70;1.00;;;;;;5049407;28;20180;-77
2022/07/06 01:17:08;;;;;;;0.30;0.30;;;15.70;33.20;;;;;;5045170;28;20182;-76
2022/07/06 01:19:34;;;;;;;0.30;0.30;;;15.70;99.90;;;;;;5046876;28;20241;-77
2022/07/06 01:21:59;;;;;;;0.40;0.40;;;15.70;1.00;;;;;;5047967;28;20223;-77
2022/07/06 01:24:25;;;;;;;0.30;0.30;;;15.60;99.90;;;;;;5047732;28;20187;-77
2022/07/06 01:26:51;;;;;;;0.30;0.30;;;15.60;26.50;;;;;;5047539;28;20898;-77
2022/07/06 01:29:17;;;;;;;0.30;0.30;;;15.60;1.00;;;;;;5050897;28;20176;-78
2022/07/06 01:31:50;;;;;;;0.30;0.30;;;15.60;99.90;;;;;;5053303;28;20203;-78
2022/07/06 01:34:17;;;;;;;0.30;0.30;;;15.50;1.00;;;;;;5044205;28;20200;-76
2022/07/06 01:36:44;;;;;;;0.40;0.40;;;15.40;1.00;;;;;;5046890;28;20602;-77
2022/07/06 01:39:09;;;;;;;0.30;0.30;;;15.40;1.00;;;;;;5037481;28;20203;-77
2022/07/06 01:41:35;;;;;;;0.30;0.30;;;15.30;99.90;;;;;;5038074;28;20241;-77
2022/07/06 01:44:01;;;;;;;0.40;0.40;;;15.30;1.00;;;;;;5043490;28;20172;-77
2022/07/06 01:46:27;;;;;;;0.40;0.40;;;15.30;99.90;;;;;;5045717;28;20186;-77
2022/07/06 01:48:53;;;;;;;0.30;0.30;;;15.20;1.00;;;;;;5045585;28;20199;-77
2022/07/06 01:51:18;;;;;;;0.40;0.40;;;15.20;1.00;;;;;;5051763;28;20176;-79
2022/07/06 01:53:44;;;;;;;0.30;0.30;;;15.20;1.00;;;;;;5054576;28;20676;-77
2022/07/06 01:56:11;;;;;;;0.40;0.40;;;15.20;1.00;;;;;;5055457;28;20246;-76
2022/07/06 01:58:38;;;;;;;0.30;0.30;;;15.10;1.00;;;;;;5057361;28;20168;-76
2022/07/06 02:01:11;;;;;;;0.30;0.30;;;15.00;1.00;;;;;;5055762;28;20215;-78
2022/07/06 02:03:37;;;;;;;0.40;0.40;;;15.10;99.90;;;;;;5046568;28;20206;-77
2022/07/06 02:06:03;;;;;;;0.20;0.20;;;15.00;99.90;;;;;;5044550;28;20180;-77
2022/07/06 02:08:29;;;;;;;0.30;0.30;;;14.80;99.90;;;;;;5041041;28;20629;-78
2022/07/06 02:10:55;;;;;;;0.33;0.33;;;14.60;1.00;;;;;;5040258;28;20243;-77
2022/07/06 02:13:20;;;;;;;0.30;0.30;;;14.50;1.00;;;;;;5039641;28;20283;-78
2022/07/06 02:15:46;;;;;;;0.30;0.30;;;14.40;1.00;;;;;;5041234;28;20183;-78
2022/07/06 02:18:11;;;;;;;0.40;0.40;;;14.40;1.00;;;;;;5041105;28;20202;-77
2022/07/06 02:20:37;;;;;;;0.37;0.37;;;14.40;1.00;;;;;;5041045;28;20564;-78
2022/07/06 02:23:03;;;;;;;0.30;0.30;;;14.40;1.00;;;;;;5040389;28;20198;-77
2022/07/06 02:25:28;;;;;;;0.40;0.40;;;14.40;1.00;;;;;;5039202;28;20177;-77
2022/07/06 02:27:54;;;;;;;0.30;0.30;;;14.30;1.00;;;;;;5037916;28;20645;-78
2022/07/06 02:30:20;;;;;;;0.30;0.30;;;14.30;1.00;;;;;;5041307;28;20241;-78
2022/07/06 02:32:45;;;;;;;0.40;0.40;;;14.30;1.00;;;;;;5043563;28;20242;-77
2022/07/06 02:35:11;;;;;;;0.30;0.30;;;14.30;1.00;;;;;;5039861;28;20187;-77
2022/07/06 02:37:38;;;;;;;0.37;0.37;;;14.30;1.00;;;;;;5035842;28;20260;-77
2022/07/06 02:40:04;;;;;;;0.30;0.30;;;14.30;1.00;;;;;;5039264;28;20549;-77
2022/07/06 02:42:30;;;;;;;0.30;0.30;;;14.20;1.00;;;;;;5037146;28;20735;-77
2022/07/06 02:44:55;;;;;;;0.30;0.30;;;14.20;1.00;;;;;;5036241;28;20168;-77
2022/07/06 02:47:21;;;;;;;0.40;0.40;;;14.10;1.00;;;;;;5035865;28;20263;-77
2022/07/06 02:49:47;;;;;;;0.40;0.40;;;14.10;1.00;;;;;;5038704;28;20239;-78
2022/07/06 02:52:12;;;;;;;0.30;0.30;;;14.10;1.00;;;;;;5037179;28;20192;-77
2022/07/06 02:54:38;;;;;;;0.30;0.30;;;14.10;1.00;;;;;;5036258;28;20176;-76
2022/07/06 02:57:03;;;;;;;0.40;0.40;;;14.10;1.00;;;;;;5038580;28;20172;-78
2022/07/06 02:59:29;;;;;;;0.40;0.40;;;14.10;1.00;;;;;;5040896;28;20204;-77
2022/07/06 03:01:54;;;;;;;0.30;0.30;;;14.00;1.00;;;;;;5039566;28;20288;-77
2022/07/06 03:04:20;;;;;;;0.30;0.30;;;14.00;1.00;;;;;;5043907;28;20202;-77
2022/07/06 03:06:46;;;;;;;0.30;0.30;;;14.00;1.00;;;;;;5048853;28;20180;-76
2022/07/06 03:09:11;;;;;;;0.33;0.33;;;13.90;1.00;;;;;;5047479;28;20204;-77
2022/07/06 03:11:37;;;;;;;0.30;0.30;;;13.80;1.00;;;;;;5047097;28;20204;-77
2022/07/06 03:14:06;;;;;;;0.40;0.40;;;13.70;1.00;;;;;;5037205;28;20180;-77
2022/07/06 03:16:32;;;;;;;0.40;0.40;;;13.70;1.00;;;;;;5036951;28;20176;-76
2022/07/06 03:18:58;;;;;;;0.40;0.40;;;13.70;1.00;;;;;;5034772;28;20183;-77
2022/07/06 03:21:24;;;;;;;0.30;0.30;;;13.70;1.00;;;;;;5035026;28;20313;-77
2022/07/06 03:23:49;;;;;;;0.40;0.40;;;13.70;1.00;;;;;;5044666;28;20171;-76
2022/07/06 03:26:15;;;;;;;0.50;0.50;;;13.60;1.00;;;;;;5047070;28;20241;-78
2022/07/06 03:28:40;;;;;;;0.40;0.40;;;13.60;1.00;;;;;;5047612;28;20175;-77
2022/07/06 03:31:06;;;;;;;0.30;0.30;;;13.60;1.00;;;;;;5041057;28;20184;-76
2022/07/06 03:33:32;;;;;;;0.30;0.30;;;13.70;1.00;;;;;;5043625;28;20210;-77
2022/07/06 03:35:57;;;;;;;0.30;0.30;;;13.70;1.00;;;;;;5045461;28;20225;-77
2022/07/06 03:38:23;;;;;;;0.40;0.40;;;13.70;1.00;;;;;;5061409;22;20220;-82
2022/07/06 03:40:48;;;;;;;0.40;0.40;;;13.60;1.00;;;;;;5034073;28;20199;-82
2022/07/06 03:43:14;;;;;;;0.37;0.37;;;13.60;1.00;;;;;;5035038;28;20196;-82
2022/07/06 03:45:39;;;;;;;0.40;0.40;;;13.60;1.00;;;;;;5034674;28;20172;-83
2022/07/06 03:48:05;;;;;;;0.40;0.40;;;13.60;1.00;;;;;;5034798;28;20570;-83
2022/07/06 03:50:31;;;;;;;0.47;0.47;;;13.70;1.00;;;;;;5036505;28;20560;-82
2022/07/06 03:52:56;;;;;;;0.33;0.33;;;13.70;1.00;;;;;;5037288;28;20261;-82
2022/07/06 03:55:22;;;;;;;0.43;0.43;;;13.70;1.00;;;;;;5057497;28;20232;-81
2022/07/06 03:57:47;;;;;;;0.30;0.30;;;13.70;1.00;;;;;;5058270;28;20198;-81
2022/07/06 04:00:14;;;;;;;0.40;0.40;;;13.70;1.00;;;;;;5057421;28;20180;-81
2022/07/06 04:02:39;;;;;;;0.30;0.30;;;13.70;1.00;;;;;;5058047;28;20189;-81
2022/07/06 04:05:05;;;;;;;0.40;0.40;;;13.70;1.00;;;;;;5057927;28;20235;-81
2022/07/06 04:07:31;;;;;;;0.40;0.40;;;13.70;1.00;;;;;;5057976;28;20164;-81
2022/07/06 04:09:56;;;;;;;0.40;0.40;;;13.70;1.00;;;;;;5055390;28;20203;-81
2022/07/06 04:12:22;;;;;;;0.40;0.40;;;13.80;1.00;;;;;;5036764;28;20195;-81
2022/07/06 04:14:48;;;;;;;0.30;0.30;;;13.90;1.00;;;;;;5036471;28;20180;-81
2022/07/06 04:19:57;;;;;;;0.30;0.30;;;14.00;1.00;;;;;;5035842;28;20182;-81
2022/07/06 04:22:23;;;;;;;0.30;0.30;;;14.10;1.00;;;;;;5035271;28;20282;-81
2022/07/06 04:24:49;;;;;;;0.40;0.40;;;14.20;1.00;;;;;;5034327;28;20634;-81
2022/07/06 04:27:14;;;;;;;0.40;0.40;;;14.00;1.00;;;;;;5033252;28;20196;-81
2022/07/06 04:29:40;;;;;;;0.30;0.30;;;14.00;1.00;;;;;;5033361;28;20181;-81
2022/07/06 04:32:05;;;;;;;0.30;0.30;;;14.10;1.00;;;;;;5034102;28;20198;-81
2022/07/06 04:34:31;;;;;;;0.47;0.47;;;14.20;1.00;;;;;;5032969;28;20184;-81
2022/07/06 04:36:57;;;;;;;0.47;0.47;;;14.20;1.00;;;;;;5032901;28;20187;-82
2022/07/06 04:39:22;;;;;;;0.40;0.40;;;14.40;1.00;;;;;;5032301;28;20408;-81
2022/07/06 04:41:48;;;;;;;0.33;0.33;;;14.50;1.00;;;;;;5032489;28;20219;-81
2022/07/06 04:44:13;;;;;;;0.40;0.40;;;14.70;1.00;;;;;;5040165;28;20275;-81
2022/07/06 04:46:39;;;;;;;0.30;0.30;;;14.80;1.00;;;;;;5041831;28;20175;-81
2022/07/06 04:49:04;;;;;;;0.40;0.40;;;15.00;1.00;;;;;;5041492;28;20171;-80
2022/07/06 04:51:30;;;;;;;0.30;0.30;;;15.20;1.00;;;;;;5041385;28;20283;-80
2022/07/06 04:53:55;;;;;;;0.30;0.30;;;15.50;1.00;;;;;;5033517;28;20179;-80
2022/07/06 04:56:21;;;;;;;0.30;0.30;;;15.70;1.00;;;;;;5040833;28;20172;-81
2022/07/06 04:58:46;;;;;;;0.40;0.40;;;15.80;1.00;;;;;;5040554;28;20176;-80
2022/07/06 05:01:12;;;;;;;0.30;0.30;;;15.90;99.90;;;;;;5040234;28;20215;-81
2022/07/06 05:03:40;;;;;;;0.23;0.23;;;15.90;99.90;;;;;;5041040;28;20210;-81
2022/07/06 05:06:06;;;;;;;0.43;0.43;;;16.10;99.90;;;;;;5040988;28;20195;-81
2022/07/06 05:08:32;;;;;;;0.40;0.40;;;16.30;1.00;;;;;;5040409;28;20208;-80
2022/07/06 05:10:57;;;;;;;0.30;0.30;;;16.60;99.90;;;;;;5040417;28;20187;-80
2022/07/06 05:13:23;;;;;;;0.40;0.40;;;16.80;99.90;;;;;;5041299;28;20734;-79
2022/07/06 05:15:48;;;;;;;0.30;0.30;;;17.10;1.00;;;;;;5040813;28;20185;-80
2022/07/06 05:18:14;;;;;;;0.20;0.20;;;17.40;1.00;;;;;;5040687;28;20575;-81
2022/07/06 05:20:40;;;;;;;0.30;0.30;;;17.50;1.00;;;;;;5041012;28;20598;-79
2022/07/06 05:23:05;;;;;;;0.30;0.30;;;17.60;99.90;;;;;;5040970;28;20570;-78
2022/07/06 05:25:32;;;;;;;0.30;0.30;;;17.60;1.00;;;;;;5042724;28;20223;-79
2022/07/06 05:27:58;;;;;;;0.37;0.37;;;17.50;99.90;;;;;;5042114;28;20667;-79
2022/07/06 05:30:24;;;;;;;0.30;0.30;;;17.30;99.90;;;;;;5038433;28;20179;-79
2022/07/06 05:32:49;;;;;;;0.30;0.30;;;17.30;1.00;;;;;;5038817;28;20192;-79
2022/07/06 05:35:16;;;;;;;0.40;0.40;;;17.40;99.90;;;;;;5039399;28;20175;-79
2022/07/06 05:37:41;;;;;;;0.30;0.30;;;17.40;1.00;;;;;;5040140;28;20195;-79
2022/07/06 05:40:07;;;;;;;0.30;0.30;;;17.50;35.40;;;;;;5039878;28;20199;-79
2022/07/06 05:42:33;;;;;;;0.33;0.33;;;17.60;99.90;;;;;;5039475;28;20223;-78
2022/07/06 05:44:58;;;;;;;0.30;0.30;;;17.70;99.90;;;;;;5040519;28;20180;-79
2022/07/06 05:50:14;;;;;;;0.40;0.40;;;17.80;97.20;;;;;;5038618;28;20187;-78
2022/07/06 05:52:57;;;;;;;0.30;0.30;;;18.00;99.90;;;;;;5040411;28;20192;-79
2022/07/06 05:55:22;;;;;;;0.40;0.40;;;18.00;1.00;;;;;;5037377;28;20180;-80
2022/07/06 05:57:49;;;;;;;0.30;0.30;;;18.10;1.00;;;;;;5037615;28;20255;-80
2022/07/06 06:00:15;;;;;;;0.30;0.30;;;18.10;1.00;;;;;;5030754;28;20263;-80
2022/07/06 06:02:42;;;;;;;0.30;0.30;;;18.20;1.00;;;;;;5034043;28;20613;-78
2022/07/06 06:05:10;;;;;;;0.40;0.40;;;18.30;1.00;;;;;;5035841;28;20190;-79
2022/07/06 06:07:37;;;;;;;0.40;0.40;;;18.30;1.00;;;;;;5034110;28;20234;-79
2022/07/06 06:10:04;;;;;;;0.30;0.30;;;18.20;99.90;;;;;;5035923;28;20258;-79
2022/07/06 06:12:30;;;;;;;0.30;0.30;;;18.30;99.90;;;;;;5035108;28;20203;-79
2022/07/06 06:14:55;;;;;;;0.30;0.30;;;18.40;1.00;;;;;;5038766;28;20226;-78
2022/07/06 06:17:21;;;;;;;0.40;0.40;;;18.50;1.00;;;;;;5037125;28;20180;-79
2022/07/06 06:19:46;;;;;;;0.30;0.30;;;18.60;99.90;;;;;;5035593;28;20176;-78
2022/07/06 06:22:13;;;;;;;0.40;0.40;;;18.60;99.90;;;;;;5036607;28;20214;-79
2022/07/06 06:24:38;;;;;;;0.30;0.30;;;18.70;99.90;;;;;;5036084;28;20541;-79
2022/07/06 06:27:04;;;;;;;0.30;0.30;;;18.80;99.90;;;;;;5036253;28;20179;-80
2022/07/06 06:29:29;;;;;;;0.30;0.30;;;18.80;99.90;;;;;;5037411;28;20229;-79
2022/07/06 06:31:55;;;;;;;0.30;0.30;;;18.90;99.90;;;;;;5035345;28;20275;-79
2022/07/06 06:34:20;;;;;;;0.30;0.30;;;19.00;99.90;;;;;;5036464;28;20698;-78
2022/07/06 06:36:46;;;;;;;0.30;0.30;;;19.10;99.90;;;;;;5035161;28;20262;-80
2022/07/06 06:39:11;;;;;;;0.30;0.30;;;19.30;99.90;;;;;;5035356;28;20254;-78
2022/07/06 06:41:37;;;;;;;0.30;0.30;;;19.40;51.80;;;;;;5035274;28;20285;-79
2022/07/06 06:44:03;;;;;;;0.20;0.20;;;19.60;1.00;;;;;;5035655;28;20176;-80
2022/07/06 06:46:28;;;;;;;0.30;0.30;;;19.60;1.00;;;;;;5035078;28;20194;-79
2022/07/06 06:48:54;;;;;;;0.30;0.30;;;19.70;1.00;;;;;;5035255;28;20180;-79
2022/07/06 06:51:20;;;;;;;0.30;0.30;;;19.90;1.00;;;;;;5034469;28;20180;-79
2022/07/06 06:53:46;;;;;;;0.30;0.30;;;20.00;1.00;;;;;;5035542;28;20168;-80
2022/07/06 06:56:12;;;;;;;0.30;0.30;;;20.10;1.00;;;;;;5035674;28;20751;-79
2022/07/06 06:58:37;;;;;;;0.30;0.30;;;20.20;1.00;;;;;;5036131;28;20168;-79
2022/07/06 07:01:04;;;;;;;0.30;0.30;;;20.20;1.00;;;;;;5034974;28;20203;-79
2022/07/06 07:03:30;;;;;;;0.30;0.30;;;20.40;1.00;;;;;;5034042;28;20684;-77
2022/07/06 07:05:55;;;;;;;0.30;0.30;;;20.50;1.00;;;;;;5034762;28;20234;-78
2022/07/06 07:08:21;;;;;;;0.30;0.30;;;20.40;1.00;;;;;;5036696;28;20254;-78
2022/07/06 07:10:46;;;;;;;0.30;0.30;;;20.40;1.00;;;;;;5036587;28;20266;-78
2022/07/06 07:13:12;;;;;;;0.30;0.30;;;20.50;1.00;;;;;;5035560;28;20257;-78
2022/07/06 07:15:38;;;;;;;0.30;0.30;;;20.60;1.00;;;;;;5036381;28;20164;-77
2022/07/06 07:18:03;;;;;;;0.30;0.30;;;20.70;1.00;;;;;;5035006;28;20506;-77
2022/07/06 07:20:30;;;;;;;0.30;0.30;;;20.80;1.00;;;;;;5034815;28;20664;-77
2022/07/06 07:22:56;;;;;;;0.30;0.30;;;20.80;1.00;;;;;;5034804;28;20191;-78
2022/07/06 07:25:22;;;;;;;0.27;0.27;;;20.90;1.00;;;;;;5035867;28;20172;-78
2022/07/06 07:27:47;;;;;;;0.30;0.30;;;21.00;1.00;;;;;;5035321;28;20194;-78
2022/07/06 07:30:13;;;;;;;0.30;0.30;;;21.00;1.00;;;;;;5034092;28;20180;-77
2022/07/06 07:32:40;;;;;;;0.30;0.30;;;21.10;1.00;;;;;;5035536;28;20207;-78
2022/07/06 07:35:06;;;;;;;0.30;0.30;;;21.30;1.00;;;;;;5034062;28;20176;-78
2022/07/06 07:37:32;;;;;;;0.30;0.30;;;21.50;1.00;;;;;;5035532;28;20209;-78
2022/07/06 07:39:58;;;;;;;0.30;0.30;;;21.50;1.00;;;;;;5036856;28;20263;-77
2022/07/06 07:42:23;;;;;;;0.30;0.30;;;21.80;1.00;;;;;;5034986;28;20304;-78
2022/07/06 07:44:49;;;;;;;0.30;0.30;;;21.80;1.00;;;;;;5036489;28;20172;-77
2022/07/06 07:47:15;;;;;;;0.20;0.20;;;22.10;1.00;;;;;;5034616;28;20264;-78
2022/07/06 07:49:40;;;;;;;0.30;0.30;;;22.30;1.00;;;;;;5031563;28;20223;-78
2022/07/06 07:52:06;;;;;;;0.30;0.30;;;22.60;1.00;;;;;;5028348;28;20230;-78
2022/07/06 07:54:31;;;;;;;0.30;0.30;;;23.00;1.00;;;;;;5024754;28;20548;-78
2022/07/06 07:56:57;;;;;;;0.27;0.27;;;23.20;1.00;;;;;;5037463;28;20534;-79
2022/07/06 07:59:22;;;;;;;0.30;0.30;;;23.50;1.00;;;;;;5036417;28;20218;-82
2022/07/06 08:01:48;;;;;;;0.30;0.30;;;23.60;1.00;;;;;;5041784;28;20229;-81
2022/07/06 08:04:14;;;;;;;0.30;0.30;;;24.40;1.00;;;;;;5042665;28;20184;-82
2022/07/06 08:06:39;;;;;;;0.40;0.40;;;24.90;1.00;;;;;;5046843;28;20191;-82
2022/07/06 08:09:07;;;;;;;0.30;0.30;;;25.40;1.00;;;;;;5048018;28;20176;-82
2022/07/06 08:11:36;;;;;;;0.30;0.30;;;25.60;1.00;;;;;;5041217;28;20274;-83
2022/07/06 08:14:02;;;;;;;0.30;0.30;;;25.80;1.00;;;;;;5037270;28;20329;-81
2022/07/06 08:16:28;;;;;;;0.30;0.30;;;26.10;1.00;;;;;;5032607;28;20180;-84
2022/07/06 08:18:53;;;;;;;0.37;0.37;;;26.30;1.00;;;;;;5028943;28;20182;-82
2022/07/06 08:21:19;;;;;;;0.30;0.30;;;26.50;1.00;;;;;;5031779;28;20292;-81
2022/07/06 08:23:45;;;;;;;0.40;0.40;;;26.80;1.00;;;;;;5031756;28;20186;-81
2022/07/06 08:26:10;;;;;;;0.30;0.30;;;26.90;1.00;;;;;;5032198;28;20267;-79
2022/07/06 08:28:36;;;;;;;0.30;0.30;;;27.00;1.00;;;;;;5026933;28;20190;-82
2022/07/06 08:31:01;;;;;;;0.43;0.43;;;27.10;1.00;;;;;;5029721;28;20183;-81
2022/07/06 08:33:27;;;;;;;0.30;0.30;;;27.20;1.00;;;;;;5030749;28;20200;-82
2022/07/06 08:35:53;;;;;;;0.47;0.47;;;27.40;1.00;;;;;;5035010;28;20180;-80
2022/07/06 08:38:18;;;;;;;0.40;0.40;;;27.80;1.00;;;;;;5042171;28;20223;-84
2022/07/06 08:40:48;;;;;;;0.30;0.30;;;28.00;1.00;;;;;;5042955;28;20216;-83
2022/07/06 08:43:15;;;;;;;0.50;0.50;;;28.20;1.00;;;;;;5045784;28;20631;-82
2022/07/06 08:45:43;;;;;;;0.43;0.43;;;28.70;1.00;;;;;;5046204;28;20239;-85
2022/07/06 08:48:09;;;;;;;0.47;0.47;;;28.70;1.00;;;;;;5045154;28;20651;-82
2022/07/06 08:50:35;;;;;;;0.40;0.40;;;28.70;1.00;;;;;;5044915;28;20475;-82
2022/07/06 08:53:02;;;;;;;0.40;0.40;;;28.70;1.00;;;;;;5045944;28;20286;-83
2022/07/06 08:55:28;;;;;;;0.40;0.40;;;28.70;1.00;;;;;;5043163;28;20168;-83
2022/07/06 08:57:55;;;;;;;0.50;0.50;;;28.80;1.00;;;;;;5046868;28;20179;-82
2022/07/06 09:00:21;;;;;;;0.43;0.43;;;28.70;1.00;;;;;;5037714;28;20184;-83
2022/07/06 09:02:50;;;;;;;0.50;0.50;;;28.60;1.00;;;;;;5040205;28;20215;-83
2022/07/06 09:05:17;;;;;;;0.43;0.43;;;28.70;1.00;;;;;;5040281;28;20615;-85
2022/07/06 09:07:48;;;;;;;0.50;0.50;;;28.80;1.00;;;;;;5049758;28;20272;-86
2022/07/06 09:10:16;;;;;;;0.40;0.40;;;29.10;1.00;;;;;;5040564;28;20180;-81
2022/07/06 09:12:42;;;;;;;0.50;0.50;;;29.10;1.00;;;;;;5042122;28;20623;-79
2022/07/06 09:15:08;;;;;;;0.40;0.40;;;29.00;1.00;;;;;;5050086;28;20576;-79
2022/07/06 09:17:38;;;;;;;0.30;0.30;;;28.70;1.00;;;;;;5051368;28;20184;-79
2022/07/06 09:20:10;;;;;;;0.40;0.40;;;28.50;1.00;;;;;;5050487;28;20172;-80
2022/07/06 09:22:36;;;;;;;0.47;0.47;;;28.70;1.00;;;;;;5050216;28;20889;-79
2022/07/06 09:25:07;;;;;;;0.50;0.50;;;29.00;1.00;;;;;;5040155;28;20203;-80
2022/07/06 09:27:47;;;;;;;0.40;0.40;;;29.20;1.00;;;;;;5037213;28;20176;-79
2022/07/06 09:30:14;;;;;;;0.50;0.50;;;29.50;1.00;;;;;;5035870;28;20187;-79
2022/07/06 09:32:44;;;;;;;0.33;0.33;;;29.60;1.00;;;;;;5037013;28;20261;-79
2022/07/06 09:35:30;;;;;;;0.50;0.50;;;29.80;1.00;;;;;;5036289;28;20607;-79
2022/07/06 09:38:03;;;;;;;0.43;0.43;;;29.70;1.00;;;;;;5061469;22;20230;-79
2022/07/06 09:40:50;;;;;;;0.40;0.40;;;29.90;1.00;;;;;;5038148;28;20267;-79
2022/07/06 09:43:18;;;;;;;0.30;0.30;;;30.10;1.00;;;;;;5038759;28;20246;-79
2022/07/06 09:45:51;;;;;;;0.40;0.40;;;30.20;1.00;;;;;;5040774;28;20187;-80
2022/07/06 09:48:23;;;;;;;0.43;0.43;;;30.00;1.00;;;;;;5039818;28;20191;-80
2022/07/06 09:50:56;;;;;;;0.40;0.40;;;29.90;1.00;;;;;;5038346;28;20183;-81
2022/07/06 09:53:24;;;;;;;0.50;0.50;;;29.80;1.00;;;;;;5038096;28;20246;-79
2022/07/06 09:55:52;;;;;;;0.60;0.60;;;29.90;1.00;;;;;;5037639;28;20168;-79
2022/07/06 09:58:18;;;;;;;0.40;0.40;;;29.90;1.00;;;;;;5037221;28;20188;-77
2022/07/06 10:00:45;;;;;;;0.30;0.30;;;29.80;1.00;;;;;;5036292;28;20274;-78
2022/07/06 10:03:12;;;;;;;0.50;0.50;;;29.90;1.00;;;;;;5036381;28;20214;-77
2022/07/06 10:05:39;;;;;;;0.60;0.60;;;30.10;1.00;;;;;;5036178;28;20282;-78
2022/07/06 10:08:08;;;;;;;0.60;0.60;;;30.20;1.00;;;;;;5035519;28;20172;-77
2022/07/06 10:10:35;;;;;;;0.50;0.50;;;30.30;1.00;;;;;;5035475;28;20586;-79
2022/07/06 10:13:02;;;;;;;0.50;0.50;;;30.20;1.00;;;;;;5015808;28;20691;-76
2022/07/06 10:15:33;;;;;;;0.40;0.40;;;29.90;1.00;;;;;;5016345;28;20187;-79
2022/07/06 10:18:00;;;;;;;0.53;0.53;;;29.30;1.00;;;;;;5016537;28;20173;-80
2022/07/06 10:20:31;;;;;;;0.50;0.50;;;28.80;1.00;;;;;;5016770;28;20227;-76
2022/07/06 10:22:59;;;;;;;0.60;0.60;;;28.80;1.00;;;;;;5026750;28;20234;-78
2022/07/06 10:25:26;;;;;;;0.50;0.50;;;28.80;1.00;;;;;;5034601;28;20176;-79
2022/07/06 10:27:53;;;;;;;0.50;0.50;;;29.30;1.00;;;;;;5034352;28;20175;-76
2022/07/06 10:30:20;;;;;;;0.60;0.60;;;29.80;1.00;;;;;;5032733;28;20222;-76
2022/07/06 10:32:49;;;;;;;0.50;0.50;;;29.20;1.00;;;;;;5033722;28;20192;-77
2022/07/06 10:35:16;;;;;;;0.40;0.40;;;28.90;1.00;;;;;;5034010;28;20191;-76
2022/07/06 10:37:42;;;;;;;0.40;0.40;;;29.00;1.00;;;;;;5033645;28;20192;-78
2022/07/06 10:43:00;;;;;;;0.50;0.50;;;29.50;1.00;;;;;;5033420;28;20258;-78
2022/07/06 10:45:28;;;;;;;0.50;0.50;;;29.70;1.00;;;;;;5035321;28;20194;-79
2022/07/06 10:48:34;;;;;;;0.50;0.50;;;29.90;1.00;;;;;;5037299;28;20195;-77
2022/07/06 10:51:01;;;;;;;0.50;0.50;;;30.10;1.00;;;;;;4999748;28;20598;-77
2022/07/06 10:53:30;;;;;;;0.50;0.50;;;29.70;1.00;;;;;;5035052;28;20700;-77
2022/07/06 10:55:56;;;;;;;0.50;0.50;;;29.50;1.00;;;;;;5034429;28;20549;-78
2022/07/06 10:58:44;;;;;;;0.47;0.47;;;29.50;1.00;;;;;;5036082;28;20629;-78
2022/07/06 11:01:10;;;;;;;0.50;0.50;;;29.60;1.00;;;;;;5035169;28;20684;-76
2022/07/06 11:03:45;;;;;;;0.70;0.70;;;29.20;1.00;;;;;;5033886;28;20195;-75
2022/07/06 11:06:18;;;;;;;0.60;0.60;;;29.50;1.00;;;;;;5032457;28;20531;-76
2022/07/06 11:08:48;;;;;;;0.50;0.50;;;29.70;1.00;;;;;;5033109;28;20292;-75
2022/07/06 11:11:19;;;;;;;0.40;0.40;;;30.00;1.00;;;;;;5032018;28;20233;-75
2022/07/06 11:14:15;;;;;;;0.63;0.63;;;30.10;1.00;;;;;;5031091;28;20183;-76
2022/07/06 11:16:49;;;;;;;0.40;0.40;;;30.00;1.00;;;;;;5027469;28;20184;-77
2022/07/06 11:19:19;;;;;;;0.50;0.50;;;29.60;1.00;;;;;;5031522;28;20179;-75
2022/07/06 11:21:56;;;;;;;0.43;0.43;;;29.60;1.00;;;;;;5030420;28;20220;-76
2022/07/06 11:24:23;;;;;;;0.50;0.50;;;29.90;1.00;;;;;;5028040;28;20190;-76
2022/07/06 11:26:50;;;;;;;0.47;0.47;;;30.20;1.00;;;;;;5032290;28;21419;-76
2022/07/06 11:29:20;;;;;;;0.70;0.70;;;30.40;1.00;;;;;;5032006;28;20191;-76
2022/07/06 11:31:47;;;;;;;0.60;0.60;;;30.60;1.00;;;;;;5032635;28;20196;-76
2022/07/06 11:34:24;;;;;;;0.50;0.50;;;30.30;1.00;;;;;;5031688;28;20205;-76
2022/07/06 11:36:56;;;;;;;0.50;0.50;;;29.80;1.00;;;;;;5032401;28;20172;-76
2022/07/06 11:39:21;;;;;;;0.50;0.50;;;29.60;1.00;;;;;;5032448;28;20268;-75
2022/07/06 11:41:47;;;;;;;0.40;0.40;;;29.70;1.00;;;;;;5033578;28;20249;-76
2022/07/06 11:44:12;;;;;;;0.40;0.40;;;29.70;1.00;;;;;;5033544;28;20782;-76
2022/07/06 11:46:38;;;;;;;0.47;0.47;;;30.20;1.00;;;;;;5033232;28;20187;-77
2022/07/06 11:49:05;;;;;;;0.40;0.40;;;30.30;1.00;;;;;;5033015;28;20171;-77
2022/07/06 11:51:34;;;;;;;0.50;0.50;;;30.70;1.00;;;;;;5033293;28;20176;-77
2022/07/06 11:54:02;;;;;;;0.60;0.60;;;30.80;1.00;;;;;;5032720;28;20641;-76
2022/07/06 11:56:28;;;;;;;0.50;0.50;;;31.00;1.00;;;;;;5033162;28;20187;-76
2022/07/06 11:58:59;;;;;;;0.50;0.50;;;30.80;1.00;;;;;;5033305;28;20273;-76
2022/07/06 12:01:27;;;;;;;0.60;0.60;;;29.90;1.00;;;;;;5032738;28;20654;-78
2022/07/06 12:03:57;;;;;;;0.60;0.60;;;29.20;1.00;;;;;;5032916;28;20176;-76
2022/07/06 12:06:25;;;;;;;0.50;0.50;;;28.40;1.00;;;;;;5033390;28;20179;-76
2022/07/06 12:08:53;;;;;;;0.40;0.40;;;28.60;1.00;;;;;;5033057;28;20683;-77
2022/07/06 12:11:28;;;;;;;0.60;0.60;;;28.90;1.00;;;;;;5032145;28;20592;-76
2022/07/06 12:13:56;;;;;;;0.50;0.50;;;29.60;1.00;;;;;;5033337;28;20262;-76
2022/07/06 12:16:30;;;;;;;0.60;0.60;;;29.60;1.00;;;;;;5032007;28;20179;-76
2022/07/06 12:18:56;;;;;;;0.60;0.60;;;29.40;1.00;;;;;;5029472;28;20234;-77
2022/07/06 12:21:22;;;;;;;0.60;0.60;;;29.70;1.00;;;;;;5031827;28;20203;-75
2022/07/06 12:23:50;;;;;;;0.50;0.50;;;29.70;1.00;;;;;;5032172;28;20183;-76
2022/07/06 12:26:18;;;;;;;0.33;0.33;;;28.80;1.00;;;;;;5030943;28;20656;-76
2022/07/06 12:28:44;;;;;;;0.40;0.40;;;28.40;1.00;;;;;;5032603;28;20180;-77
2022/07/06 12:31:11;;;;;;;0.40;0.40;;;28.70;1.00;;;;;;5032352;28;20266;-76
2022/07/06 12:33:37;;;;;;;0.40;0.40;;;29.10;1.00;;;;;;5032486;28;20190;-76
2022/07/06 12:36:14;;;;;;;0.53;0.53;;;29.20;1.00;;;;;;5032930;28;20182;-77
2022/07/06 12:38:48;;;;;;;0.50;0.50;;;29.00;1.00;;;;;;5032539;28;20195;-77
2022/07/06 12:41:33;;;;;;;0.40;0.40;;;28.30;1.00;;;;;;5032297;28;20208;-76
2022/07/06 12:44:09;;;;;;;0.40;0.40;;;27.70;1.00;;;;;;5032520;28;20191;-77
2022/07/06 12:46:37;;;;;;;0.40;0.40;;;27.30;1.00;;;;;;5030266;28;20205;-76
2022/07/06 12:49:11;;;;;;;0.33;0.33;;;27.50;1.00;;;;;;5032207;28;20180;-76
2022/07/06 12:51:52;;;;;;;0.60;0.60;;;28.20;1.00;;;;;;5033055;28;20251;-77
2022/07/06 12:54:18;;;;;;;0.30;0.30;;;28.60;1.00;;;;;;5032728;28;20184;-76
2022/07/06 12:56:57;;;;;;;0.33;0.33;;;28.80;1.00;;;;;;5032809;28;20176;-76
2022/07/06 12:59:23;;;;;;;0.40;0.40;;;28.50;1.00;;;;;;5031734;28;20187;-77
2022/07/06 13:01:50;;;;;;;0.50;0.50;;;28.80;1.00;;;;;;5032430;28;20215;-77
2022/07/06 13:04:16;;;;;;;0.30;0.30;;;29.00;1.00;;;;;;5033302;28;20183;-77